Time,TemperatureF,DewpointF,PressureIn,WindDirection,WindDirectionDegrees,WindSpeedMPH,WindSpeedGustMPH,Humidity,HourlyPrecipIn,Conditions,Clouds,dailyrainin,SoftwareType,DateUTC
2013-10-03 00:07:00,74.5,72.0,29.95,ESE,103,0.0,2.0,93,0.00,,,0.00,weatherlink.com 1.10,2013-10-03 05:07:00,
2013-10-03 00:22:00,74.4,72.0,29.94,East,98,0.0,2.0,93,0.00,,,0.00,weatherlink.com 1.10,2013-10-03 05:22:00,
2013-10-03 00:37:00,74.2,72.0,29.95,East,92,0.0,2.0,94,0.00,,,0.00,weatherlink.com 1.10,2013-10-03 05:37:00,
2013-10-03 00:52:00,73.9,72.0,29.94,East,91,0.0,1.0,94,0.00,,,0.00,weatherlink.com 1.10,2013-10-03 05:52:00,
2013-10-03 01:07:00,73.6,72.0,29.94,East,91,0.0,2.0,95,0.00,,,0.00,weatherlink.com 1.10,2013-10-03 06:07:00,
2013-10-03 01:22:00,73.3,72.0,29.94,East,84,1.0,2.0,95,0.00,,,0.00,weatherlink.com 1.10,2013-10-03 06:22:00,
2013-10-03 01:37:00,73.0,72.0,29.95,East,89,0.0,2.0,95,0.00,,,0.00,weatherlink.com 1.10,2013-10-03 06:37:00,
2013-10-03 01:52:00,72.9,71.0,29.94,East,85,2.0,2.0,95,0.00,,,0.00,weatherlink.com 1.10,2013-10-03 06:52:00,
2013-10-03 02:07:00,72.7,71.0,29.93,East,79,1.0,2.0,95,0.00,,,0.00,weatherlink.com 1.10,2013-10-03 07:07:00,
2013-10-03 02:22:00,72.7,72.0,29.93,East,94,2.0,3.0,96,0.00,,,0.00,weatherlink.com 1.10,2013-10-03 07:22:00,
2013-10-03 02:37:00,72.7,72.0,29.93,ENE,74,0.0,3.0,96,0.00,,,0.00,weatherlink.com 1.10,2013-10-03 07:37:00,
2013-10-03 02:52:00,72.6,71.0,29.92,East,84,1.0,3.0,96,0.00,,,0.00,weatherlink.com 1.10,2013-10-03 07:52:00,
2013-10-03 03:07:00,72.6,71.0,29.91,East,94,1.0,2.0,96,0.00,,,0.00,weatherlink.com 1.10,2013-10-03 08:07:00,
2013-10-03 03:22:00,72.6,71.0,29.91,East,98,0.0,2.0,96,0.00,,,0.00,weatherlink.com 1.10,2013-10-03 08:22:00,
2013-10-03 03:37:00,72.7,72.0,29.92,East,94,1.0,1.0,96,0.00,,,0.00,weatherlink.com 1.10,2013-10-03 08:37:00,
2013-10-03 03:52:00,72.8,72.0,29.91,ENE,78,0.0,1.0,96,0.00,,,0.00,weatherlink.com 1.10,2013-10-03 08:52:00,
2013-10-03 04:07:00,72.9,72.0,29.91,East,86,1.0,2.0,96,0.00,,,0.00,weatherlink.com 1.10,2013-10-03 09:07:00,
2013-10-03 04:22:00,73.2,72.0,29.91,ESE,117,1.0,3.0,96,0.00,,,0.00,weatherlink.com 1.10,2013-10-03 09:22:00,
2013-10-03 04:37:00,73.2,72.0,29.91,ESE,111,1.0,3.0,96,0.00,,,0.00,weatherlink.com 1.10,2013-10-03 09:37:00,
2013-10-03 04:52:00,73.3,72.0,29.91,East,83,0.0,3.0,96,0.00,,,0.00,weatherlink.com 1.10,2013-10-03 09:52:00,
2013-10-03 05:07:00,73.4,72.0,29.91,East,89,2.0,3.0,96,0.00,,,0.00,weatherlink.com 1.10,2013-10-03 10:07:00,
2013-10-03 05:22:00,73.5,72.0,29.91,East,86,2.0,3.0,96,0.00,,,0.00,weatherlink.com 1.10,2013-10-03 10:22:00,
2013-10-03 05:37:00,73.6,73.0,29.91,East,89,2.0,3.0,97,0.00,,,0.00,weatherlink.com 1.10,2013-10-03 10:37:00,
2013-10-03 05:52:00,73.8,73.0,29.91,ESE,122,1.0,3.0,97,0.00,,,0.00,weatherlink.com 1.10,2013-10-03 10:52:00,
2013-10-03 06:07:00,74.0,73.0,29.92,ENE,73,2.0,3.0,97,0.00,,,0.00,weatherlink.com 1.10,2013-10-03 11:07:00,
2013-10-03 06:22:00,74.1,73.0,29.92,East,84,2.0,3.0,97,0.00,,,0.00,weatherlink.com 1.10,2013-10-03 11:22:00,
2013-10-03 06:37:00,74.3,73.0,29.92,ENE,71,4.0,4.0,97,0.00,,,0.00,weatherlink.com 1.10,2013-10-03 11:37:00,
2013-10-03 06:52:00,74.4,74.0,29.92,East,91,1.0,3.0,97,0.00,,,0.00,weatherlink.com 1.10,2013-10-03 11:52:00,
2013-10-03 07:07:00,74.3,73.0,29.92,East,101,2.0,2.0,97,0.00,,,0.00,weatherlink.com 1.10,2013-10-03 12:07:00,
2013-10-03 07:22:00,74.3,73.0,29.93,East,89,0.0,3.0,97,0.00,,,0.00,weatherlink.com 1.10,2013-10-03 12:22:00,
2013-10-03 07:37:00,74.4,74.0,29.93,East,79,2.0,3.0,97,0.00,,,0.00,weatherlink.com 1.10,2013-10-03 12:37:00,
2013-10-03 07:52:00,74.6,74.0,29.94,ESE,113,0.0,3.0,97,0.00,,,0.00,weatherlink.com 1.10,2013-10-03 12:52:00,
2013-10-03 08:08:00,74.7,74.0,29.94,East,101,1.0,3.0,97,0.00,,,0.00,weatherlink.com 1.10,2013-10-03 13:08:00,
2013-10-03 08:23:00,74.8,74.0,29.94,East,94,3.0,4.0,97,0.00,,,0.00,weatherlink.com 1.10,2013-10-03 13:23:00,
2013-10-03 08:38:00,75.2,74.0,29.95,ESE,113,2.0,3.0,97,0.00,,,0.00,weatherlink.com 1.10,2013-10-03 13:38:00,
2013-10-03 08:53:00,75.2,74.0,29.95,East,94,2.0,5.0,97,0.00,,,0.00,weatherlink.com 1.10,2013-10-03 13:53:00,
2013-10-03 09:08:00,75.6,75.0,29.96,ESE,117,1.0,4.0,97,0.00,,,0.00,weatherlink.com 1.10,2013-10-03 14:08:00,
2013-10-03 09:23:00,76.2,75.0,29.96,East,96,1.0,2.0,97,0.00,,,0.00,weatherlink.com 1.10,2013-10-03 14:23:00,
2013-10-03 09:38:00,76.4,76.0,29.96,East,96,2.0,5.0,97,0.00,,,0.00,weatherlink.com 1.10,2013-10-03 14:38:00,
2013-10-03 09:52:00,77.5,77.0,29.97,ESE,120,1.0,4.0,97,0.00,,,0.00,weatherlink.com 1.10,2013-10-03 14:52:00,
2013-10-03 10:08:00,79.2,77.0,29.97,East,95,3.0,5.0,94,0.00,,,0.00,weatherlink.com 1.10,2013-10-03 15:08:00,
2013-10-03 10:23:00,80.5,77.0,29.97,ENE,78,1.0,5.0,88,0.00,,,0.00,weatherlink.com 1.10,2013-10-03 15:23:00,
2013-10-03 10:38:00,81.3,77.0,29.97,East,79,4.0,5.0,87,0.00,,,0.00,weatherlink.com 1.10,2013-10-03 15:38:00,
2013-10-03 10:53:00,82.8,78.0,29.97,East,85,1.0,4.0,84,0.00,,,0.00,weatherlink.com 1.10,2013-10-03 15:53:00,
2013-10-03 11:08:00,83.8,77.0,29.97,South,174,2.0,5.0,80,0.00,,,0.00,weatherlink.com 1.10,2013-10-03 16:08:00,
2013-10-03 11:23:00,84.7,76.0,29.97,SE,137,4.0,6.0,76,0.00,,,0.00,weatherlink.com 1.10,2013-10-03 16:23:00,
2013-10-03 11:38:00,84.0,76.0,29.96,SE,145,4.0,7.0,77,0.00,,,0.00,weatherlink.com 1.10,2013-10-03 16:38:00,
2013-10-03 11:53:00,85.7,77.0,29.96,SE,127,4.0,8.0,74,0.00,,,0.00,weatherlink.com 1.10,2013-10-03 16:53:00,
2013-10-03 12:08:00,85.5,75.0,29.96,ESE,117,2.0,5.0,71,0.00,,,0.00,weatherlink.com 1.10,2013-10-03 17:08:00,
2013-10-03 12:23:00,85.0,75.0,29.96,East,92,3.0,5.0,73,0.00,,,0.00,weatherlink.com 1.10,2013-10-03 17:23:00,
2013-10-03 12:38:00,85.9,76.0,29.95,East,91,1.0,3.0,72,0.00,,,0.00,weatherlink.com 1.10,2013-10-03 17:38:00,
2013-10-03 12:53:00,89.2,75.0,29.94,SSE,162,3.0,7.0,63,0.00,,,0.00,weatherlink.com 1.10,2013-10-03 17:53:00,
2013-10-03 13:08:00,88.3,75.0,29.94,South,191,7.0,7.0,65,0.00,,,0.00,weatherlink.com 1.10,2013-10-03 18:08:00,
2013-10-03 13:23:00,88.4,73.0,29.93,ESE,122,2.0,8.0,61,0.00,,,0.00,weatherlink.com 1.10,2013-10-03 18:23:00,
2013-10-03 13:38:00,88.0,72.0,29.93,South,174,3.0,8.0,60,0.00,,,0.00,weatherlink.com 1.10,2013-10-03 18:38:00,
2013-10-03 13:53:00,89.0,73.0,29.92,SSE,150,4.0,8.0,59,0.00,,,0.00,weatherlink.com 1.10,2013-10-03 18:53:00,
2013-10-03 14:08:00,89.7,73.0,29.92,SSW,203,7.0,9.0,59,0.00,,,0.00,weatherlink.com 1.10,2013-10-03 19:08:00,
2013-10-03 14:23:00,89.8,72.0,29.91,South,179,6.0,9.0,56,0.00,,,0.00,weatherlink.com 1.10,2013-10-03 19:23:00,
2013-10-03 14:38:00,90.0,72.0,29.91,SW,217,0.0,9.0,56,0.00,,,0.00,weatherlink.com 1.10,2013-10-03 19:38:00,
2013-10-03 14:54:00,90.2,72.0,29.90,SE,137,4.0,9.0,56,0.00,,,0.00,weatherlink.com 1.10,2013-10-03 19:54:00,
2013-10-03 15:09:00,90.7,72.0,29.90,SSE,165,2.0,8.0,55,0.00,,,0.00,weatherlink.com 1.10,2013-10-03 20:09:00,
2013-10-03 15:24:00,90.7,73.0,29.90,ESE,120,6.0,7.0,56,0.00,,,0.00,weatherlink.com 1.10,2013-10-03 20:24:00,
2013-10-03 15:39:00,90.6,72.0,29.90,South,180,4.0,9.0,54,0.00,,,0.00,weatherlink.com 1.10,2013-10-03 20:39:00,
2013-10-03 15:54:00,90.2,71.0,29.89,SSE,153,9.0,12.0,54,0.00,,,0.00,weatherlink.com 1.10,2013-10-03 20:54:00,
2013-10-03 16:09:00,89.7,71.0,29.89,SW,225,4.0,8.0,54,0.00,,,0.00,weatherlink.com 1.10,2013-10-03 21:09:00,
2013-10-03 16:24:00,89.2,73.0,29.89,South,190,3.0,8.0,60,0.00,,,0.00,weatherlink.com 1.10,2013-10-03 21:24:00,
2013-10-03 16:39:00,88.4,73.0,29.89,SE,138,1.0,6.0,61,0.00,,,0.00,weatherlink.com 1.10,2013-10-03 21:39:00,
2013-10-03 16:54:00,87.0,73.0,29.88,SE,146,2.0,7.0,64,0.00,,,0.00,weatherlink.com 1.10,2013-10-03 21:54:00,
2013-10-03 17:09:00,86.7,74.0,29.88,West,263,1.0,6.0,67,0.00,,,0.00,weatherlink.com 1.10,2013-10-03 22:09:00,
2013-10-03 17:24:00,85.9,75.0,29.88,NW,305,0.0,7.0,69,0.00,,,0.00,weatherlink.com 1.10,2013-10-03 22:24:00,
2013-10-03 17:39:00,85.9,74.0,29.88,SE,134,4.0,7.0,68,0.00,,,0.00,weatherlink.com 1.10,2013-10-03 22:39:00,
2013-10-03 17:54:00,86.1,75.0,29.88,SE,141,3.0,7.0,69,0.00,,,0.00,weatherlink.com 1.10,2013-10-03 22:54:00,
2013-10-03 18:09:00,85.3,75.0,29.89,SSE,150,4.0,5.0,70,0.00,,,0.00,weatherlink.com 1.10,2013-10-03 23:09:00,
2013-10-03 18:24:00,84.1,75.0,29.89,South,183,2.0,5.0,73,0.00,,,0.00,weatherlink.com 1.10,2013-10-03 23:24:00,
2013-10-03 18:39:00,82.7,74.0,29.89,SSW,196,0.0,4.0,75,0.00,,,0.00,weatherlink.com 1.10,2013-10-03 23:39:00,
2013-10-03 18:54:00,81.6,74.0,29.89,SSE,156,0.0,2.0,78,0.00,,,0.00,weatherlink.com 1.10,2013-10-03 23:54:00,
2013-10-03 19:09:00,80.3,74.0,29.89,SSE,158,0.0,1.0,81,0.00,,,0.00,weatherlink.com 1.10,2013-10-04 00:09:00,
2013-10-03 19:24:00,79.4,74.0,29.89,SSE,158,0.0,1.0,83,0.00,,,0.00,weatherlink.com 1.10,2013-10-04 00:24:00,
2013-10-03 19:39:00,78.4,74.0,29.90,SSE,158,0.0,0.0,85,0.00,,,0.00,weatherlink.com 1.10,2013-10-04 00:39:00,
2013-10-03 19:54:00,77.3,73.0,29.90,SSE,158,0.0,0.0,87,0.00,,,0.00,weatherlink.com 1.10,2013-10-04 00:54:00,
2013-10-03 20:09:00,77.2,74.0,29.90,SSE,158,0.0,0.0,88,0.00,,,0.00,weatherlink.com 1.10,2013-10-04 01:09:00,
2013-10-03 20:24:00,76.9,74.0,29.90,SSE,155,0.0,1.0,89,0.00,,,0.00,weatherlink.com 1.10,2013-10-04 01:24:00,
2013-10-03 20:39:00,76.5,73.0,29.91,SSE,155,0.0,0.0,89,0.00,,,0.00,weatherlink.com 1.10,2013-10-04 01:39:00,
2013-10-03 20:54:00,75.9,73.0,29.91,SSE,155,0.0,0.0,90,0.00,,,0.00,weatherlink.com 1.10,2013-10-04 01:54:00,
2013-10-03 21:09:00,75.6,73.0,29.91,SSE,155,0.0,0.0,91,0.00,,,0.00,weatherlink.com 1.10,2013-10-04 02:09:00,
2013-10-03 21:24:00,74.9,72.0,29.91,SSE,155,0.0,0.0,91,0.00,,,0.00,weatherlink.com 1.10,2013-10-04 02:24:00,
2013-10-03 21:39:00,74.5,72.0,29.91,SSE,155,0.0,0.0,93,0.00,,,0.00,weatherlink.com 1.10,2013-10-04 02:39:00,
2013-10-03 21:54:00,74.0,72.0,29.93,SSE,155,0.0,0.0,93,0.00,,,0.00,weatherlink.com 1.10,2013-10-04 02:54:00,
2013-10-03 22:09:00,73.9,72.0,29.92,SSE,155,0.0,0.0,94,0.00,,,0.00,weatherlink.com 1.10,2013-10-04 03:09:00,
2013-10-03 22:24:00,73.4,72.0,29.93,SSE,155,0.0,0.0,94,0.00,,,0.00,weatherlink.com 1.10,2013-10-04 03:24:00,
2013-10-03 22:39:00,73.6,72.0,29.93,SSE,155,0.0,0.0,94,0.00,,,0.00,weatherlink.com 1.10,2013-10-04 03:39:00,
2013-10-03 22:54:00,73.4,72.0,29.93,SSE,155,0.0,0.0,94,0.00,,,0.00,weatherlink.com 1.10,2013-10-04 03:54:00,
2013-10-03 23:39:00,74.3,73.0,29.93,ESE,108,0.0,0.0,95,0.00,,,0.00,weatherlink.com 1.10,2013-10-04 04:39:00,
2013-10-03 23:54:00,74.2,73.0,29.92,ESE,108,0.0,0.0,95,0.00,,,0.00,weatherlink.com 1.10,2013-10-04 04:54:00,